createdAt,value
2022-08-23T00:02:23.108Z,44.92
2022-08-23T00:05:08.285Z,45.08
2022-08-23T00:07:42.515Z,44.84
2022-08-23T00:10:11.717Z,45.69
2022-08-23T00:12:38.946Z,45.50
2022-08-23T00:15:07.683Z,44.85
2022-08-23T00:17:35.537Z,44.58
2022-08-23T00:20:11.463Z,45.14
2022-08-23T00:22:38.439Z,46.46
2022-08-23T00:25:06.922Z,46.26
2022-08-23T00:27:33.564Z,46.13
2022-08-23T00:30:00.485Z,45.25
2022-08-23T00:32:32.835Z,46.66
2022-08-23T00:35:00.363Z,46.06
2022-08-23T00:37:28.683Z,46.25
2022-08-23T00:39:55.447Z,45.79
2022-08-23T00:42:53.126Z,45.78
2022-08-23T00:45:46.102Z,45.79
2022-08-23T00:48:13.091Z,45.71
2022-08-23T00:50:52.520Z,45.61
2022-08-23T00:53:32.189Z,45.97
2022-08-23T00:56:03.530Z,46.36
2022-08-23T00:58:30.822Z,47.16
2022-08-23T01:00:59.811Z,47.65
2022-08-23T01:03:28.997Z,47.75
2022-08-23T01:06:19.488Z,47.07
2022-08-23T01:08:50.270Z,46.65
2022-08-23T01:11:26.547Z,46.41
2022-08-23T01:14:01.095Z,46.18
2022-08-23T01:16:33.699Z,45.96
2022-08-23T01:19:03.034Z,46.77
2022-08-23T01:21:41.325Z,46.47
2022-08-23T01:24:08.317Z,45.95
2022-08-23T01:26:35.322Z,46.57
2022-08-23T01:29:06.381Z,46.03
2022-08-23T01:31:33.508Z,46.16
2022-08-23T01:34:03.733Z,46.16
2022-08-23T01:36:31.400Z,47.18
2022-08-23T01:38:57.881Z,47.29
2022-08-23T01:41:24.590Z,47.21
2022-08-23T01:43:51.903Z,47.45
2022-08-23T01:46:21.409Z,47.73
2022-08-23T01:48:49.691Z,47.35
2022-08-23T01:51:19.276Z,47.65
2022-08-23T01:53:46.589Z,48.62
2022-08-23T01:56:15.290Z,49.04
2022-08-23T01:58:42.247Z,48.49
2022-08-23T02:01:08.966Z,49.29
2022-08-23T02:03:37.149Z,48.92
2022-08-23T02:06:04.361Z,49.02
2022-08-23T02:08:49.424Z,48.50
2022-08-23T02:11:22.155Z,48.47
2022-08-23T02:13:50.452Z,48.17
2022-08-23T02:17:03.748Z,48.98
2022-08-23T02:19:34.846Z,49.97
2022-08-23T02:22:01.390Z,48.83
2022-08-23T02:24:27.951Z,48.41
2022-08-23T02:26:57.612Z,48.99
2022-08-23T02:29:29.448Z,49.62
2022-08-23T02:34:24.035Z,51.30
2022-08-23T02:36:52.614Z,51.09
2022-08-23T02:39:19.421Z,49.99
2022-08-23T02:41:45.941Z,50.60
2022-08-23T02:44:13.161Z,51.07
2022-08-23T02:46:40.549Z,50.51
2022-08-23T02:49:07.284Z,50.80
2022-08-23T02:51:34.155Z,49.66
2022-08-23T02:54:01.357Z,49.13
2022-08-23T02:56:27.943Z,49.74
2022-08-23T02:58:54.965Z,51.20
2022-08-23T03:01:33.415Z,51.31
2022-08-23T03:04:00.293Z,52.05
2022-08-23T03:06:28.018Z,52.51
2022-08-23T03:08:56.479Z,52.83
2022-08-23T03:11:24.931Z,51.74
2022-08-23T03:13:52.483Z,51.47
2022-08-23T03:16:19.801Z,53.29
2022-08-23T03:18:46.846Z,53.27
2022-08-23T03:21:13.687Z,52.74
2022-08-23T03:23:41.168Z,52.00
2022-08-23T03:26:10.385Z,52.53
2022-08-23T03:28:39.778Z,52.74
2022-08-23T03:31:07.990Z,52.50
2022-08-23T03:33:34.738Z,52.36
2022-08-23T03:36:04.771Z,51.78
2022-08-23T03:38:31.287Z,52.58
2022-08-23T03:40:58.397Z,52.71
2022-08-23T03:43:24.951Z,53.48
2022-08-23T03:45:51.508Z,52.83
2022-08-23T03:48:18.137Z,53.31
2022-08-23T03:50:45.264Z,52.80
2022-08-23T03:53:13.031Z,52.15
2022-08-23T03:55:42.499Z,52.50
2022-08-23T03:58:11.066Z,53.50
2022-08-23T04:00:38.497Z,53.55
2022-08-23T04:03:05.180Z,54.01
2022-08-23T04:05:31.630Z,53.98
2022-08-23T04:07:58.331Z,53.36
2022-08-23T04:10:25.086Z,54.14
2022-08-23T04:12:54.837Z,53.58
2022-08-23T04:15:22.289Z,54.20
2022-08-23T04:17:49.431Z,53.16
2022-08-23T04:20:16.363Z,53.48
2022-08-23T04:22:42.820Z,54.15
2022-08-23T04:25:33.111Z,54.23
2022-08-23T04:27:59.331Z,53.07
2022-08-23T04:30:27.021Z,53.48
2022-08-23T04:32:53.503Z,52.85
2022-08-23T04:35:21.049Z,52.72
2022-08-23T04:37:47.506Z,52.74
2022-08-23T04:40:32.914Z,52.59
2022-08-23T04:42:59.481Z,52.35
2022-08-23T04:45:27.155Z,53.40
2022-08-23T04:47:53.943Z,54.37
2022-08-23T04:50:21.753Z,53.08
2022-08-23T04:52:48.260Z,52.49
2022-08-23T04:55:14.742Z,52.66
2022-08-23T04:57:42.513Z,53.24
2022-08-23T05:00:14.497Z,53.29
2022-08-23T05:02:41.021Z,53.93
2022-08-23T05:05:09.579Z,53.11
2022-08-23T05:07:42.129Z,53.01
2022-08-23T05:10:14.484Z,52.56
2022-08-23T05:12:41.390Z,52.42
2022-08-23T05:15:12.315Z,52.62
2022-08-23T05:17:39.374Z,52.38
2022-08-23T05:20:08.339Z,53.25
2022-08-23T05:22:36.777Z,53.72
2022-08-23T05:25:04.025Z,52.43
2022-08-23T05:27:30.579Z,51.82
2022-08-23T05:29:57.107Z,52.33
2022-08-23T05:32:23.867Z,51.89
2022-08-23T05:34:50.326Z,52.38
2022-08-23T05:37:17.879Z,51.67
2022-08-23T05:39:44.408Z,51.89
2022-08-23T05:42:14.554Z,51.28
2022-08-23T05:44:41.328Z,51.68
2022-08-23T05:47:10.780Z,51.47
2022-08-23T05:49:39.146Z,51.12
2022-08-23T05:52:07.889Z,51.17
2022-08-23T05:54:35.059Z,51.60
2022-08-23T05:57:02.049Z,51.81
2022-08-23T05:59:28.659Z,51.86
2022-08-23T06:01:55.230Z,50.83
2022-08-23T06:04:21.985Z,51.52
2022-08-23T06:06:48.763Z,48.89
2022-08-23T06:09:18.111Z,49.75
2022-08-23T06:11:47.159Z,49.85
2022-08-23T06:14:14.989Z,48.04
2022-08-23T06:16:47.965Z,48.57
2022-08-23T06:19:15.134Z,47.71
2022-08-23T06:21:42.636Z,47.39
2022-08-23T06:24:09.615Z,47.70
2022-08-23T06:26:38.843Z,47.97
2022-08-23T06:29:08.318Z,47.31
2022-08-23T06:31:48.013Z,47.00
2022-08-23T06:34:19.148Z,48.04
2022-08-23T06:36:47.796Z,46.69
2022-08-23T06:39:16.509Z,46.68
2022-08-23T06:41:43.425Z,46.69
2022-08-23T06:44:10.274Z,46.65
2022-08-23T06:46:38.336Z,45.47
2022-08-23T06:49:06.601Z,44.79
2022-08-23T06:51:39.252Z,45.31
2022-08-23T06:54:10.071Z,45.74
2022-08-23T06:56:40.541Z,44.90
2022-08-23T06:59:07.808Z,44.26
2022-08-23T07:01:49.052Z,43.45
2022-08-23T07:04:24.521Z,42.14
2022-08-23T07:06:51.011Z,41.79
2022-08-23T07:09:18.598Z,41.60
2022-08-23T07:11:46.261Z,42.57
2022-08-23T07:14:16.407Z,42.86
2022-08-23T07:16:49.830Z,41.94
2022-08-23T07:19:21.397Z,43.46
2022-08-23T07:21:49.351Z,40.92
2022-08-23T07:24:17.646Z,39.94
2022-08-23T07:26:45.743Z,39.49
2022-08-23T07:29:13.717Z,39.37
2022-08-23T07:31:46.260Z,38.72
2022-08-23T07:34:15.615Z,38.86
2022-08-23T07:36:43.945Z,39.04
2022-08-23T07:39:12.233Z,38.15
2022-08-23T07:41:38.901Z,38.13
2022-08-23T07:44:08.182Z,38.71
2022-08-23T07:46:36.933Z,38.21
2022-08-23T07:49:04.527Z,37.85
2022-08-23T07:51:32.906Z,38.44
2022-08-23T07:54:01.732Z,39.74
2022-08-23T07:56:29.068Z,36.48
2022-08-23T07:58:55.993Z,35.00
2022-08-23T08:01:26.161Z,33.96
2022-08-23T08:03:55.132Z,34.33
2022-08-23T08:06:26.342Z,35.10
2022-08-23T08:08:53.599Z,35.59
2022-08-23T08:11:22.594Z,34.13
2022-08-23T08:13:51.151Z,33.62
2022-08-23T08:16:30.561Z,33.73
2022-08-23T08:18:59.460Z,34.82
2022-08-23T08:21:27.485Z,35.13
2022-08-23T08:23:54.990Z,34.83
2022-08-23T08:26:22.925Z,35.27
2022-08-23T08:28:49.393Z,35.37
2022-08-23T08:31:16.317Z,34.88
2022-08-23T08:33:42.874Z,34.38
2022-08-23T08:36:28.708Z,34.83
2022-08-23T08:38:58.833Z,34.43
2022-08-23T08:42:05.271Z,35.65
2022-08-23T08:44:38.377Z,35.94
2022-08-23T08:47:16.172Z,35.52
2022-08-23T08:50:14.694Z,34.62
2022-08-23T08:52:47.231Z,35.17
2022-08-23T08:55:30.934Z,35.96
2022-08-23T08:57:57.998Z,35.67
2022-08-23T09:00:28.554Z,37.11
2022-08-23T09:02:58.247Z,36.03
2022-08-23T09:05:31.667Z,37.08
2022-08-23T09:08:13.887Z,35.58
2022-08-23T09:10:43.491Z,35.90
2022-08-23T09:13:25.004Z,36.92
2022-08-23T09:16:03.558Z,36.48
2022-08-23T09:18:34.694Z,35.88
2022-08-23T09:21:04.802Z,35.66
2022-08-23T09:23:38.240Z,35.89
2022-08-23T09:26:22.992Z,36.82
2022-08-23T09:29:00.142Z,36.29
2022-08-23T09:31:42.575Z,35.87
2022-08-23T09:34:15.561Z,35.72
2022-08-23T09:36:42.024Z,35.10
2022-08-23T09:39:33.228Z,34.34
2022-08-23T09:42:00.491Z,34.91
2022-08-23T09:44:35.863Z,34.19
2022-08-23T09:47:16.677Z,34.42
2022-08-23T09:49:45.733Z,34.40
2022-08-23T09:52:26.524Z,34.94
2022-08-23T09:55:06.376Z,36.38
2022-08-23T09:57:34.731Z,34.17
2022-08-23T10:00:29.297Z,33.31
2022-08-23T10:03:19.936Z,34.69
2022-08-23T10:05:52.113Z,33.96
2022-08-23T10:08:28.455Z,33.91
2022-08-23T10:11:06.930Z,33.24
2022-08-23T10:13:36.925Z,34.20
2022-08-23T10:16:03.490Z,33.19
2022-08-23T10:18:51.507Z,33.21
2022-08-23T10:21:38.203Z,32.89
2022-08-23T10:24:38.876Z,33.00
2022-08-23T10:27:37.417Z,32.57
2022-08-23T10:30:15.219Z,32.85
2022-08-23T10:32:54.131Z,32.31
2022-08-23T10:35:30.547Z,32.24
2022-08-23T10:38:19.554Z,32.90
2022-08-23T10:41:04.813Z,31.72
2022-08-23T10:43:40.573Z,33.04
2022-08-23T10:46:10.237Z,32.23
2022-08-23T10:48:52.118Z,31.89
2022-08-23T10:51:31.599Z,32.86
2022-08-23T10:54:04.093Z,33.14
2022-08-23T10:56:30.563Z,32.37
2022-08-23T10:59:07.434Z,33.33
2022-08-23T11:02:04.967Z,32.48
2022-08-23T11:04:53.390Z,31.53
2022-08-23T11:07:57.301Z,31.51
2022-08-23T11:10:55.924Z,32.67
2022-08-23T11:13:27.334Z,31.79
2022-08-23T11:16:29.154Z,31.51
2022-08-23T11:18:55.652Z,32.06
2022-08-23T11:21:25.137Z,32.33
2022-08-23T11:23:54.659Z,31.84
2022-08-23T11:26:27.094Z,31.79
2022-08-23T11:29:17.242Z,31.14
2022-08-23T11:31:57.600Z,30.18
2022-08-23T11:34:56.879Z,30.41
2022-08-23T11:37:27.182Z,30.33
2022-08-23T11:39:59.698Z,30.24
2022-08-23T11:42:38.124Z,30.91
2022-08-23T11:45:31.281Z,29.91
2022-08-23T11:48:38.300Z,30.57
2022-08-23T11:51:34.027Z,30.38
2022-08-23T11:54:15.941Z,29.86
2022-08-23T11:57:04.466Z,30.29
2022-08-23T12:00:00.177Z,30.07
2022-08-23T12:03:13.066Z,29.69
2022-08-23T12:05:51.090Z,30.17
2022-08-23T12:08:21.945Z,28.95
2022-08-23T12:10:48.381Z,29.83
2022-08-23T12:13:20.956Z,30.41
2022-08-23T12:16:06.342Z,29.28
2022-08-23T12:18:42.364Z,29.15
2022-08-23T12:21:23.613Z,29.48
2022-08-23T12:23:53.454Z,29.45
2022-08-23T12:26:49.574Z,28.46
2022-08-23T12:29:32.716Z,27.99
2022-08-23T12:32:06.455Z,28.08
2022-08-23T12:34:39.032Z,27.77
2022-08-23T12:37:15.137Z,27.69
2022-08-23T12:39:57.439Z,27.97
2022-08-23T12:42:31.233Z,28.47
2022-08-23T12:45:07.086Z,28.83
2022-08-23T12:47:34.327Z,28.72
2022-08-23T12:50:06.052Z,27.86
2022-08-23T12:52:35.299Z,27.13
2022-08-23T12:55:02.256Z,28.33
2022-08-23T12:57:38.472Z,28.46
2022-08-23T13:00:16.495Z,29.64
2022-08-23T13:03:06.298Z,29.76
2022-08-23T13:05:54.786Z,28.44
2022-08-23T13:08:45.166Z,28.07
2022-08-23T13:11:14.635Z,27.85
2022-08-23T13:13:44.065Z,28.23
2022-08-23T13:16:33.788Z,29.56
2022-08-23T13:19:34.327Z,27.67
2022-08-23T13:22:13.081Z,27.86
2022-08-23T13:24:44.786Z,27.68
2022-08-23T13:27:27.453Z,28.32
2022-08-23T13:30:09.079Z,28.24
2022-08-23T13:32:43.565Z,27.75
2022-08-23T13:35:31.704Z,27.92
2022-08-23T13:38:19.862Z,27.43
2022-08-23T13:40:50.077Z,27.34
2022-08-23T13:43:27.170Z,27.57
2022-08-23T13:45:57.356Z,27.36
2022-08-23T13:48:34.869Z,27.70
2022-08-23T13:51:37.015Z,26.89
2022-08-23T13:54:14.617Z,27.57
2022-08-23T13:56:50.625Z,26.47
2022-08-23T13:59:22.857Z,26.21
2022-08-23T14:01:51.887Z,26.39
2022-08-23T14:04:18.372Z,25.83
2022-08-23T14:06:48.651Z,26.36
2022-08-23T14:09:16.718Z,26.54
2022-08-23T14:11:43.770Z,25.76
2022-08-23T14:14:12.341Z,25.43
2022-08-23T14:16:40.063Z,26.72
2022-08-23T14:19:54.359Z,25.57
2022-08-23T14:21:56.500Z,26.12
2022-08-23T14:24:23.001Z,25.83
2022-08-23T14:26:52.326Z,25.38
2022-08-23T14:29:23.491Z,25.69
2022-08-23T14:31:53.031Z,26.49
2022-08-23T14:34:20.814Z,25.24
2022-08-23T14:39:34.680Z,25.13
2022-08-23T14:42:02.755Z,24.88
2022-08-23T14:44:35.829Z,25.72
2022-08-23T14:47:04.282Z,25.19
2022-08-23T14:49:30.763Z,25.89
2022-08-23T14:51:57.277Z,26.31
2022-08-23T14:54:25.885Z,25.12
2022-08-23T14:56:53.324Z,26.74
2022-08-23T14:59:20.416Z,25.78
2022-08-23T15:01:49.894Z,25.00
2022-08-23T15:04:19.686Z,25.34
2022-08-23T15:07:13.986Z,25.33
2022-08-23T15:09:33.815Z,24.93
2022-08-23T15:14:47.058Z,25.94
2022-08-23T15:17:13.985Z,25.71
2022-08-23T15:19:40.650Z,25.19
2022-08-23T15:22:18.602Z,25.74
2022-08-23T15:24:48.053Z,26.50
2022-08-23T15:27:14.555Z,26.84
2022-08-23T15:29:41.024Z,26.38
2022-08-23T15:32:08.717Z,25.83
2022-08-23T15:34:37.044Z,27.83
2022-08-23T15:37:06.637Z,27.65
2022-08-23T15:39:33.133Z,25.95
2022-08-23T15:41:59.639Z,26.43
2022-08-23T15:44:26.111Z,26.21
2022-08-23T15:46:54.567Z,25.87
2022-08-23T15:49:23.365Z,25.58
2022-08-23T15:51:50.017Z,25.08
2022-08-23T15:54:16.691Z,25.18
2022-08-23T15:56:53.132Z,25.59
2022-08-23T15:59:21.651Z,25.06
2022-08-23T16:01:48.296Z,25.86
2022-08-23T16:04:14.789Z,26.17
2022-08-23T16:06:41.354Z,26.05
2022-08-23T16:09:14.459Z,26.19
2022-08-23T16:11:43.507Z,26.05
2022-08-23T16:14:11.747Z,26.12
2022-08-23T16:16:40.380Z,26.02
2022-08-23T16:19:08.828Z,26.53
2022-08-23T16:21:36.300Z,25.55
2022-08-23T16:24:03.384Z,26.80
2022-08-23T16:26:34.775Z,25.71
2022-08-23T16:29:01.703Z,26.03
2022-08-23T16:31:38.282Z,27.84
2022-08-23T16:34:14.613Z,26.18
2022-08-23T16:36:44.321Z,25.63
2022-08-23T16:39:12.403Z,26.18
2022-08-23T16:41:38.861Z,27.03
2022-08-23T16:44:06.132Z,25.66
2022-08-23T16:46:32.894Z,25.89
2022-08-23T16:48:59.411Z,25.76
2022-08-23T16:51:26.248Z,27.01
2022-08-23T16:54:01.730Z,26.08
2022-08-23T16:56:30.856Z,26.07
2022-08-23T16:58:57.440Z,25.86
2022-08-23T17:01:24.381Z,27.62
2022-08-23T17:03:51.209Z,25.84
2022-08-23T17:06:18.186Z,26.50
2022-08-23T17:08:45.063Z,25.50
2022-08-23T17:11:15.081Z,25.44
2022-08-23T17:13:41.875Z,25.63
2022-08-23T17:16:09.075Z,25.54
2022-08-23T17:18:35.957Z,25.79
2022-08-23T17:21:05.780Z,25.78
2022-08-23T17:23:32.936Z,26.22
2022-08-23T17:26:00.578Z,26.96
2022-08-23T17:28:27.894Z,26.62
2022-08-23T17:30:58.330Z,26.55
2022-08-23T17:33:24.793Z,26.89
2022-08-23T17:35:51.356Z,27.52
2022-08-23T17:38:18.084Z,26.93
2022-08-23T17:40:45.258Z,27.00
2022-08-23T17:43:12.713Z,27.31
2022-08-23T17:45:44.988Z,27.64
2022-08-23T17:48:12.068Z,27.83
2022-08-23T17:50:39.477Z,27.43
2022-08-23T17:53:06.918Z,27.62
2022-08-23T17:55:35.376Z,27.60
2022-08-23T17:58:04.135Z,27.81
2022-08-23T18:00:36.008Z,28.19
2022-08-23T18:03:02.960Z,28.17
2022-08-23T18:05:33.148Z,28.81
2022-08-23T18:08:01.364Z,28.84
2022-08-23T18:10:29.899Z,28.67
2022-08-23T18:12:57.498Z,28.93
2022-08-23T18:15:24.414Z,28.38
2022-08-23T18:17:51.591Z,28.66
2022-08-23T18:20:23.148Z,29.44
2022-08-23T18:22:49.658Z,29.30
2022-08-23T18:25:17.034Z,29.33
2022-08-23T18:28:02.795Z,30.26
2022-08-23T18:30:29.331Z,29.61
2022-08-23T18:32:57.298Z,29.78
2022-08-23T18:35:30.528Z,29.67
2022-08-23T18:37:57.874Z,29.79
2022-08-23T18:40:26.155Z,30.34
2022-08-23T18:42:52.961Z,30.44
2022-08-23T18:45:19.935Z,30.57
2022-08-23T18:47:48.471Z,30.70
2022-08-23T18:50:16.377Z,31.14
2022-08-23T18:52:43.036Z,32.41
2022-08-23T18:55:09.946Z,31.12
2022-08-23T18:57:36.611Z,31.50
2022-08-23T19:00:05.114Z,31.95
2022-08-23T19:02:33.904Z,31.83
2022-08-23T19:05:02.841Z,31.76
2022-08-23T19:07:29.339Z,32.36
2022-08-23T19:09:55.913Z,32.61
2022-08-23T19:12:22.472Z,32.58
2022-08-23T19:14:48.992Z,33.92
2022-08-23T19:17:15.569Z,33.07
2022-08-23T19:19:42.363Z,33.21
2022-08-23T19:22:08.896Z,32.90
2022-08-23T19:24:35.391Z,33.34
2022-08-23T19:27:01.914Z,33.31
2022-08-23T19:29:28.466Z,33.75
2022-08-23T19:31:55.106Z,34.14
2022-08-23T19:34:22.841Z,33.61
2022-08-23T19:37:00.253Z,33.36
2022-08-23T19:39:28.279Z,33.56
2022-08-23T19:41:55.161Z,34.20
2022-08-23T19:44:22.435Z,34.05
2022-08-23T19:46:49.239Z,34.33
2022-08-23T19:49:16.101Z,33.92
2022-08-23T19:51:43.175Z,33.98
2022-08-23T19:54:12.269Z,34.27
2022-08-23T19:57:00.076Z,34.51
2022-08-23T19:59:35.239Z,34.90
2022-08-23T20:02:02.863Z,34.74
2022-08-23T20:04:31.516Z,35.22
2022-08-23T20:06:59.435Z,35.05
2022-08-23T20:09:29.003Z,35.26
2022-08-23T20:11:56.362Z,35.58
2022-08-23T20:14:24.858Z,35.36
2022-08-23T20:16:51.940Z,35.59
2022-08-23T20:19:18.603Z,35.16
2022-08-23T20:21:45.238Z,35.65
2022-08-23T20:24:15.557Z,35.17
2022-08-23T20:26:43.158Z,35.38
2022-08-23T20:29:14.246Z,35.50
2022-08-23T20:31:48.765Z,35.73
2022-08-23T20:34:15.471Z,35.92
2022-08-23T20:36:41.927Z,36.41
2022-08-23T20:39:08.620Z,35.88
2022-08-23T20:41:38.051Z,35.81
2022-08-23T20:44:06.923Z,36.20
2022-08-23T20:46:33.489Z,36.63
2022-08-23T20:48:59.998Z,36.72
2022-08-23T20:51:28.045Z,36.40
2022-08-23T20:53:55.869Z,36.91
2022-08-23T20:56:23.425Z,37.21
2022-08-23T20:58:50.834Z,37.01
2022-08-23T21:01:18.567Z,37.44
2022-08-23T21:03:45.482Z,37.44
2022-08-23T21:06:16.493Z,37.53
2022-08-23T21:08:48.515Z,37.73
2022-08-23T21:11:15.683Z,37.23
2022-08-23T21:13:44.059Z,38.32
2022-08-23T21:16:11.980Z,38.33
2022-08-23T21:18:38.515Z,38.31
2022-08-23T21:21:05.105Z,38.67
2022-08-23T21:23:31.644Z,37.88
2022-08-23T21:25:58.983Z,39.11
2022-08-23T21:28:26.439Z,38.60
2022-08-23T21:30:53.150Z,38.22
2022-08-23T21:33:21.833Z,38.65
2022-08-23T21:35:48.950Z,38.57
2022-08-23T21:38:15.527Z,38.92
2022-08-23T21:40:42.063Z,38.82
2022-08-23T21:43:08.585Z,38.57
2022-08-23T21:45:35.120Z,38.96
2022-08-23T21:48:01.634Z,39.57
2022-08-23T21:50:28.704Z,39.65
2022-08-23T21:52:56.526Z,39.33
2022-08-23T21:55:23.785Z,39.63
2022-08-23T21:58:00.910Z,39.93
2022-08-23T22:00:27.404Z,39.64
2022-08-23T22:02:53.949Z,40.27
2022-08-23T22:05:20.447Z,40.71
2022-08-23T22:07:47.083Z,40.42
2022-08-23T22:10:14.146Z,40.00
2022-08-23T22:12:41.707Z,40.87
2022-08-23T22:15:08.934Z,40.28
2022-08-23T22:17:35.551Z,40.25
2022-08-23T22:20:04.984Z,40.99
2022-08-23T22:22:33.319Z,40.67
2022-08-23T22:25:01.363Z,40.63
2022-08-23T22:27:28.600Z,40.41
2022-08-23T22:29:55.745Z,40.52
2022-08-23T22:32:22.835Z,40.99
2022-08-23T22:34:49.483Z,40.78
2022-08-23T22:37:16.212Z,40.93
2022-08-23T22:39:42.917Z,40.63
2022-08-23T22:42:10.070Z,41.26
2022-08-23T22:44:37.109Z,40.99
2022-08-23T22:47:03.669Z,40.64
2022-08-23T22:49:30.897Z,40.87
2022-08-23T22:51:57.816Z,40.87
2022-08-23T22:54:25.049Z,40.62
2022-08-23T22:56:53.108Z,41.07
2022-08-23T22:59:21.698Z,40.94
2022-08-23T23:01:55.539Z,40.84
2022-08-23T23:04:26.318Z,41.40
2022-08-23T23:06:54.348Z,41.91
2022-08-23T23:09:21.000Z,41.36
2022-08-23T23:11:47.644Z,41.84
2022-08-23T23:14:15.822Z,41.49
2022-08-23T23:16:43.081Z,41.19
2022-08-23T23:19:28.297Z,41.82
2022-08-23T23:21:57.507Z,42.52
2022-08-23T23:24:34.511Z,41.79
2022-08-23T23:27:01.626Z,41.11
2022-08-23T23:29:29.628Z,41.60
2022-08-23T23:31:56.879Z,42.06
2022-08-23T23:34:23.817Z,41.89
2022-08-23T23:36:55.828Z,41.80
2022-08-23T23:39:22.699Z,41.54
2022-08-23T23:41:49.171Z,41.99
2022-08-23T23:44:16.230Z,41.65
2022-08-23T23:46:51.018Z,41.28
2022-08-23T23:49:17.629Z,42.63
2022-08-23T23:51:50.125Z,41.59
2022-08-23T23:54:16.641Z,41.67
2022-08-23T23:56:43.103Z,41.99
2022-08-23T23:59:09.569Z,41.79
